Time;durP1;ratioP1;P1;durP2;ratioP2;P2;SDS_P1;SDS_P2;PMS_P1;PMS_P2;Temp;Humidity;BMP_temperature;BMP_pressure;BME280_temperature;BME280_humidity;BME280_pressure;Samples;Min_cycle;Max_cycle;Signal;HPM_P1;HPM_P2
2022/10/08 13:30:49;;;;;;;;;;;;;;;;;;5096638;27;1898374;-54
2022/10/08 13:33:14;;;;;;;;;;;;;;;;;;5139025;27;20990;-54
2022/10/08 13:35:40;;;;;;;;;;;;;;;;;;5147400;27;19952;-54
2022/10/08 13:38:05;;;;;;;;;;;;;;;;;;5147719;27;19908;-54
2022/10/08 13:40:30;;;;;;;;;;;;;;;;;;5145981;27;19908;-54
2022/10/08 13:42:55;;;;;;;;;;;;;;;;;;5146219;27;20011;-55
2022/10/08 13:45:20;;;;;;;;;;;;;;;;;;5145915;27;19964;-54
2022/10/08 13:47:45;;;;;;;;;;;;;;;;;;5144162;27;19932;-55
2022/10/08 13:50:10;;;;;;;;;;;;;;;;;;5143963;27;19930;-55
2022/10/08 13:52:35;;;;;;;;;;;;;;;;;;5143510;27;19912;-54
2022/10/08 13:55:00;;;;;;;;;;;;;;;;;;5147421;27;19907;-55
2022/10/08 13:57:25;;;;;;;;;;;;;;;;;;5143698;27;20350;-55
2022/10/08 13:59:50;;;;;;;;;;;;;;;;;;5145157;27;19907;-55
2022/10/08 14:02:15;;;;;;;;;;;;;;;;;;5144015;27;19932;-55
2022/10/08 14:04:41;;;;;;;;;;;;;;;;;;5145047;27;19907;-55
2022/10/08 14:07:06;;;;;;;;;;;;;;;;;;5145271;27;19939;-55
2022/10/08 14:09:31;;;;;;;;;;;;;;;;;;5143253;27;19955;-55
2022/10/08 14:11:58;;;;;;;;;;;;;;;;;;5146804;27;19914;-55
2022/10/08 14:14:23;;;;;;;;;;;;;;;;;;5130406;27;19918;-55
2022/10/08 14:16:48;;;;;;;;;;;;;;;;;;5126663;28;19908;-55
2022/10/08 14:19:13;;;;;;;;;;;;;;;;;;5130898;27;20054;-55
2022/10/08 14:21:38;;;;;;;;;;;;;;;;;;5136639;27;20367;-55
2022/10/08 14:24:03;;;;;;;;;;;;;;;;;;5126614;28;20006;-55
2022/10/08 14:26:29;;;;;;;;;;;;;;;;;;5126502;28;19914;-55
2022/10/08 14:28:54;;;;;;;;;;;;;;;;;;5139034;27;20554;-55
2022/10/08 14:31:19;;;;;;;;;;;;;;;;;;5132945;27;19927;-54
2022/10/08 14:33:44;;;;;;;;;;;;;;;;;;5134591;27;19916;-56
2022/10/08 14:36:09;;;;;;;;;;;;;;;;;;5131102;27;19923;-54
2022/10/08 14:38:34;;;;;;;;;;;;;;;;;;5133066;27;19945;-55
2022/10/08 14:41:00;;;;;;;;;;;;;;;;;;5123183;27;20434;-54
2022/10/08 14:43:25;;;;;;;;;;;;;;;;;;5117840;27;19911;-54
2022/10/08 14:45:50;;;;;;;;;;;;;;;;;;5098417;27;19922;-55
2022/10/08 14:48:15;;;;;;;;;;;;;;;;;;5118484;27;19923;-55
2022/10/08 14:50:40;;;;;;;;;;;;;;;;;;5114230;27;19959;-55
2022/10/08 14:53:05;;;;;;;;;;;;;;;;;;5119527;27;19911;-54
2022/10/08 14:55:30;;;;;;;;;;;;;;;;;;5109433;27;19953;-55
2022/10/08 14:57:55;;;;;;;;;;;;;;;;;;5122492;27;19911;-55
2022/10/08 15:00:20;;;;;;;;;;;;;;;;;;5130192;27;20345;-53
2022/10/08 15:02:45;;;;;;;;;;;;;;;;;;5109347;27;19923;-55
2022/10/08 15:05:10;;;;;;;;;;;;;;;;;;5108707;28;19951;-55
2022/10/08 15:07:36;;;;;;;;;;;;;;;;;;5116068;27;19934;-54
2022/10/08 15:10:01;;;;;;;;;;;;;;;;;;5111322;27;19959;-54
2022/10/08 15:12:26;;;;;;;;;;;;;;;;;;5117280;27;19912;-55
2022/10/08 15:14:51;;;;;;;;;;;;;;;;;;5110031;27;19943;-55
2022/10/08 15:17:16;;;;;;;;;;;;;;;;;;5114020;27;19961;-55
2022/10/08 15:19:41;;;;;;;;;;;;;;;;;;5113574;27;19912;-53
2022/10/08 15:22:06;;;;;;;;;;;;;;;;;;5117480;27;19912;-54
2022/10/08 15:24:31;;;;;;;;;;;;;;;;;;5108864;27;20293;-53
2022/10/08 15:26:56;;;;;;;;;;;;;;;;;;5120240;27;20377;-54
2022/10/08 15:29:21;;;;;;;;;;;;;;;;;;5120592;27;19993;-55
2022/10/08 15:31:46;;;;;;;;;;;;;;;;;;5123393;27;19911;-54
2022/10/08 15:34:12;;;;;;;;;;;;;;;;;;5108939;27;19919;-55
2022/10/08 15:36:37;;;;;;;;;;;;;;;;;;5106115;27;20006;-55
2022/10/08 15:39:02;;;;;;;;;;;;;;;;;;5108724;27;19907;-56
2022/10/08 15:41:27;;;;;;;;;;;;;;;;;;5119470;27;19946;-56
2022/10/08 15:43:52;;;;;;;;;;;;;;;;;;5122140;27;19941;-56
2022/10/08 15:46:17;;;;;;;;;;;;;;;;;;5126673;27;20604;-55
2022/10/08 15:48:42;;;;;;;;;;;;;;;;;;5115061;27;19919;-55
2022/10/08 15:51:07;;;;;;;;;;;;;;;;;;5110904;27;19965;-56
2022/10/08 15:53:33;;;;;;;;;;;;;;;;;;5118517;27;19911;-53
2022/10/08 15:55:58;;;;;;;;;;;;;;;;;;5128787;27;19919;-54
2022/10/08 15:58:23;;;;;;;;;;;;;;;;;;5122015;27;19960;-54
2022/10/08 16:00:48;;;;;;;;;;;;;;;;;;5122955;27;19911;-54
2022/10/08 16:03:13;;;;;;;;;;;;;;;;;;5112919;27;20390;-54
2022/10/08 16:05:38;;;;;;;;;;;;;;;;;;5113811;27;19919;-55
2022/10/08 16:08:07;;;;;;;;;;;;;;;;;;5122459;27;19980;-54
2022/10/08 16:10:32;;;;;;;;;;;;;;;;;;5127091;27;20394;-54
2022/10/08 16:12:57;;;;;;;;;;;;;;;;;;5112919;27;20374;-56
2022/10/08 16:15:22;;;;;;;;;;;;;;;;;;5125729;27;19918;-55
2022/10/08 16:17:47;;;;;;;;;;;;;;;;;;5117391;27;19934;-54
2022/10/08 16:20:12;;;;;;;;;;;;;;;;;;5112826;27;20274;-55
2022/10/08 16:22:38;;;;;;;;;;;;;;;;;;5123634;27;19911;-56
2022/10/08 16:25:03;;;;;;;;;;;;;;;;;;5120830;27;19912;-55
2022/10/08 16:27:28;;;;;;;;;;;;;;;;;;5118527;27;19923;-56
2022/10/08 16:29:53;;;;;;;;;;;;;;;;;;5117352;27;19964;-55
2022/10/08 16:32:18;;;;;;;;;;;;;;;;;;5120402;27;19912;-56
2022/10/08 16:34:48;;;;;;;;;;;;;;;;;;5119879;27;20362;-56
2022/10/08 16:37:13;;;;;;;;;;;;;;;;;;5116783;27;20392;-56
2022/10/08 16:39:38;;;;;;;;;;;;;;;;;;5128468;27;20413;-56
2022/10/08 16:42:04;;;;;;;;;;;;;;;;;;5124617;27;19911;-56
2022/10/08 16:44:29;;;;;;;;;;;;;;;;;;5105967;28;19918;-55
2022/10/08 16:46:54;;;;;;;;;;;;;;;;;;5107572;28;19914;-56
2022/10/08 16:49:19;;;;;;;;;;;;;;;;;;5127564;27;19938;-56
2022/10/08 16:51:44;;;;;;;;;;;;;;;;;;5130371;27;20331;-55
2022/10/08 16:54:09;;;;;;;;;;;;;;;;;;5128352;27;19908;-56
2022/10/08 16:56:34;;;;;;;;;;;;;;;;;;5124656;27;19920;-56
2022/10/08 16:59:00;;;;;;;;;;;;;;;;;;5129997;27;20442;-56
2022/10/08 17:01:25;;;;;;;;;;;;;;;;;;5125965;27;19922;-55
2022/10/08 17:03:50;;;;;;;;;;;;;;;;;;5109985;27;19912;-55
2022/10/08 17:06:15;;;;;;;;;;;;;;;;;;5107670;28;19907;-55
2022/10/08 17:08:40;;;;;;;;;;;;;;;;;;5105971;28;19974;-55
2022/10/08 17:11:05;;;;;;;;;;;;;;;;;;5108939;28;19915;-56
2022/10/08 17:13:30;;;;;;;;;;;;;;;;;;5107435;27;19947;-55
2022/10/08 17:15:55;;;;;;;;;;;;;;;;;;5116092;27;20385;-55
2022/10/08 17:18:20;;;;;;;;;;;;;;;;;;5127965;27;19931;-55
2022/10/08 17:20:45;;;;;;;;;;;;;;;;;;5128420;27;20357;-56
2022/10/08 17:23:10;;;;;;;;;;;;;;;;;;5129690;27;19921;-56
2022/10/08 17:25:36;;;;;;;;;;;;;;;;;;5123841;27;19928;-54
2022/10/08 17:28:01;;;;;;;;;;;;;;;;;;5109230;28;19907;-55
2022/10/08 17:30:26;;;;;;;;;;;;;;;;;;5109173;28;19923;-56
2022/10/08 17:32:51;;;;;;;;;;;;;;;;;;5107501;28;20378;-56
2022/10/08 17:35:16;;;;;;;;;;;;;;;;;;5107738;28;19962;-56
2022/10/08 17:37:41;;;;;;;;;;;;;;;;;;5108150;28;19918;-56
2022/10/08 17:40:06;;;;;;;;;;;;;;;;;;5109193;28;19908;-56
2022/10/08 17:42:31;;;;;;;;;;;;;;;;;;5107256;28;19965;-56
2022/10/08 17:44:57;;;;;;;;;;;;;;;;;;5109571;28;19929;-56
2022/10/08 17:47:22;;;;;;;;;;;;;;;;;;5106791;28;19936;-55
2022/10/08 17:49:47;;;;;;;;;;;;;;;;;;5107228;28;19977;-55
2022/10/08 17:52:12;;;;;;;;;;;;;;;;;;5107030;28;19916;-55
2022/10/08 17:54:37;;;;;;;;;;;;;;;;;;5106434;28;19946;-55
2022/10/08 17:57:03;;;;;;;;;;;;;;;;;;5120764;28;19961;-55
2022/10/08 17:59:28;;;;;;;;;;;;;;;;;;5127658;28;19978;-55
2022/10/08 18:01:53;;;;;;;;;;;;;;;;;;5129527;28;19907;-55
2022/10/08 18:04:19;;;;;;;;;;;;;;;;;;5121871;28;19908;-55
2022/10/08 18:06:45;;;;;;;;;;;;;;;;;;5109297;28;19954;-55
2022/10/08 18:09:10;;;;;;;;;;;;;;;;;;5108716;28;19919;-54
2022/10/08 18:11:35;;;;;;;;;;;;;;;;;;5108686;28;19912;-55
2022/10/08 18:14:00;;;;;;;;;;;;;;;;;;5104303;28;19961;-56
2022/10/08 18:16:25;;;;;;;;;;;;;;;;;;5110542;28;19912;-55
2022/10/08 18:18:50;;;;;;;;;;;;;;;;;;5110967;28;20320;-55
2022/10/08 18:21:15;;;;;;;;;;;;;;;;;;5110891;28;20002;-55
2022/10/08 18:23:41;;;;;;;;;;;;;;;;;;5112270;28;20328;-56
2022/10/08 18:26:06;;;;;;;;;;;;;;;;;;5110633;27;19968;-56
2022/10/08 18:28:31;;;;;;;;;;;;;;;;;;5105903;27;19965;-56
2022/10/08 18:30:57;;;;;;;;;;;;;;;;;;5116654;27;19923;-56
2022/10/08 18:33:22;;;;;;;;;;;;;;;;;;5109472;28;19911;-56
2022/10/08 18:35:47;;;;;;;;;;;;;;;;;;5112178;27;19963;-55
2022/10/08 18:38:12;;;;;;;;;;;;;;;;;;5109500;28;20279;-55
2022/10/08 18:40:37;;;;;;;;;;;;;;;;;;5108808;28;19980;-56
2022/10/08 18:43:02;;;;;;;;;;;;;;;;;;5109029;28;20018;-55
2022/10/08 18:45:27;;;;;;;;;;;;;;;;;;5112260;27;20123;-55
2022/10/08 18:47:52;;;;;;;;;;;;;;;;;;5124170;27;20459;-55
2022/10/08 18:50:17;;;;;;;;;;;;;;;;;;5122346;27;19920;-56
2022/10/08 18:52:43;;;;;;;;;;;;;;;;;;5112355;27;20374;-55
2022/10/08 18:55:08;;;;;;;;;;;;;;;;;;5117233;27;19987;-56
2022/10/08 18:57:33;;;;;;;;;;;;;;;;;;5112369;27;19968;-55
2022/10/08 18:59:58;;;;;;;;;;;;;;;;;;5107787;27;19912;-55
2022/10/08 19:02:23;;;;;;;;;;;;;;;;;;5120693;27;19912;-55
2022/10/08 19:04:48;;;;;;;;;;;;;;;;;;5108823;28;19956;-56
2022/10/08 19:07:13;;;;;;;;;;;;;;;;;;5106912;28;20006;-54
2022/10/08 19:09:38;;;;;;;;;;;;;;;;;;5112270;27;19923;-54
2022/10/08 19:12:04;;;;;;;;;;;;;;;;;;5121097;27;19915;-55
2022/10/08 19:14:29;;;;;;;;;;;;;;;;;;5125789;27;19912;-55
2022/10/08 19:16:55;;;;;;;;;;;;;;;;;;5129486;27;19911;-55
2022/10/08 19:19:20;;;;;;;;;;;;;;;;;;5129270;27;19907;-56
2022/10/08 19:21:45;;;;;;;;;;;;;;;;;;5126459;27;19922;-56
2022/10/08 19:24:10;;;;;;;;;;;;;;;;;;5129050;27;19925;-56
2022/10/08 19:26:35;;;;;;;;;;;;;;;;;;5111376;27;20405;-56
2022/10/08 19:29:00;;;;;;;;;;;;;;;;;;5108715;27;20399;-56
2022/10/08 19:31:25;;;;;;;;;;;;;;;;;;5105763;27;20385;-57
2022/10/08 19:33:51;;;;;;;;;;;;;;;;;;5108019;27;20216;-55
2022/10/08 19:36:16;;;;;;;;;;;;;;;;;;5108559;28;20374;-55
2022/10/08 19:38:41;;;;;;;;;;;;;;;;;;5122610;27;19935;-56
2022/10/08 19:41:06;;;;;;;;;;;;;;;;;;5128803;27;19912;-55
2022/10/08 19:43:31;;;;;;;;;;;;;;;;;;5113591;27;19919;-56
2022/10/08 19:45:56;;;;;;;;;;;;;;;;;;5108314;28;20255;-57
2022/10/08 19:48:21;;;;;;;;;;;;;;;;;;5120797;27;19922;-56
2022/10/08 19:50:46;;;;;;;;;;;;;;;;;;5120868;27;19927;-57
2022/10/08 19:53:13;;;;;;;;;;;;;;;;;;5121812;27;19918;-55
2022/10/08 19:55:38;;;;;;;;;;;;;;;;;;5105460;28;19920;-56
2022/10/08 19:58:03;;;;;;;;;;;;;;;;;;5108199;28;19960;-56
2022/10/08 20:00:28;;;;;;;;;;;;;;;;;;5105695;28;19915;-57
2022/10/08 20:02:53;;;;;;;;;;;;;;;;;;5107374;28;19911;-55
2022/10/08 20:05:18;;;;;;;;;;;;;;;;;;5109298;27;20247;-55
2022/10/08 20:07:44;;;;;;;;;;;;;;;;;;5117172;27;19912;-55
2022/10/08 20:10:09;;;;;;;;;;;;;;;;;;5109298;27;19961;-55
2022/10/08 20:12:34;;;;;;;;;;;;;;;;;;5110217;27;19960;-55
2022/10/08 20:14:59;;;;;;;;;;;;;;;;;;5127754;27;19912;-54
2022/10/08 20:17:24;;;;;;;;;;;;;;;;;;5108617;27;19916;-55
2022/10/08 20:19:49;;;;;;;;;;;;;;;;;;5107725;28;19919;-56
2022/10/08 20:22:14;;;;;;;;;;;;;;;;;;5122254;27;20359;-55
2022/10/08 20:24:39;;;;;;;;;;;;;;;;;;5125945;27;19911;-56
2022/10/08 20:27:04;;;;;;;;;;;;;;;;;;5115768;27;19977;-56
2022/10/08 20:29:29;;;;;;;;;;;;;;;;;;5116274;27;19946;-56
2022/10/08 20:31:54;;;;;;;;;;;;;;;;;;5119426;27;19938;-56
2022/10/08 20:34:19;;;;;;;;;;;;;;;;;;5119445;27;19947;-56
2022/10/08 20:36:45;;;;;;;;;;;;;;;;;;5111600;27;19934;-56
2022/10/08 20:39:10;;;;;;;;;;;;;;;;;;5117972;27;19916;-55
2022/10/08 20:41:35;;;;;;;;;;;;;;;;;;5112462;27;19916;-55
2022/10/08 20:44:01;;;;;;;;;;;;;;;;;;5105904;27;19916;-55
2022/10/08 20:46:26;;;;;;;;;;;;;;;;;;5112305;27;20373;-54
2022/10/08 20:48:51;;;;;;;;;;;;;;;;;;5113175;27;19965;-55
2022/10/08 20:51:16;;;;;;;;;;;;;;;;;;5118111;27;19915;-54
2022/10/08 20:53:41;;;;;;;;;;;;;;;;;;5132895;27;19958;-55
2022/10/08 20:56:07;;;;;;;;;;;;;;;;;;5118227;27;20007;-54
2022/10/08 20:58:32;;;;;;;;;;;;;;;;;;5111150;27;19919;-56
2022/10/08 21:00:57;;;;;;;;;;;;;;;;;;5120258;27;19961;-56
2022/10/08 21:03:22;;;;;;;;;;;;;;;;;;5119708;27;19971;-56
2022/10/08 21:05:47;;;;;;;;;;;;;;;;;;5120917;27;20413;-57
2022/10/08 21:08:12;;;;;;;;;;;;;;;;;;5106877;28;19916;-56
2022/10/08 21:10:37;;;;;;;;;;;;;;;;;;5106269;28;19941;-56
2022/10/08 21:13:02;;;;;;;;;;;;;;;;;;5103497;27;19915;-56
2022/10/08 21:15:27;;;;;;;;;;;;;;;;;;5111518;27;20342;-56
2022/10/08 21:17:52;;;;;;;;;;;;;;;;;;5105657;27;19918;-55
2022/10/08 21:20:18;;;;;;;;;;;;;;;;;;5119912;28;19918;-55
2022/10/08 21:22:43;;;;;;;;;;;;;;;;;;5122228;27;19912;-55
2022/10/08 21:25:08;;;;;;;;;;;;;;;;;;5124687;27;19959;-55
2022/10/08 21:27:33;;;;;;;;;;;;;;;;;;5107373;27;19919;-55
2022/10/08 21:29:58;;;;;;;;;;;;;;;;;;5108231;28;20000;-55
2022/10/08 21:32:23;;;;;;;;;;;;;;;;;;5114269;28;19941;-54
2022/10/08 21:34:48;;;;;;;;;;;;;;;;;;5115050;28;19924;-54
2022/10/08 21:37:13;;;;;;;;;;;;;;;;;;5117707;28;19931;-54
2022/10/08 21:39:38;;;;;;;;;;;;;;;;;;5108964;27;21212;-57
2022/10/08 21:42:03;;;;;;;;;;;;;;;;;;5124735;27;20031;-56
2022/10/08 21:44:28;;;;;;;;;;;;;;;;;;5119220;27;19915;-55
2022/10/08 21:46:53;;;;;;;;;;;;;;;;;;5118460;28;19912;-54
2022/10/08 21:49:19;;;;;;;;;;;;;;;;;;5112695;28;20435;-54
2022/10/08 21:51:44;;;;;;;;;;;;;;;;;;5117598;27;19916;-55
2022/10/08 21:54:10;;;;;;;;;;;;;;;;;;5118787;27;20362;-55
2022/10/08 21:56:35;;;;;;;;;;;;;;;;;;5128584;27;19917;-55
2022/10/08 21:59:01;;;;;;;;;;;;;;;;;;5126202;27;19911;-57
2022/10/08 22:01:26;;;;;;;;;;;;;;;;;;5120028;27;19911;-55
2022/10/08 22:03:51;;;;;;;;;;;;;;;;;;5117941;27;19938;-55
2022/10/08 22:06:16;;;;;;;;;;;;;;;;;;5124880;27;20436;-55
2022/10/08 22:08:41;;;;;;;;;;;;;;;;;;5131815;27;20381;-55
2022/10/08 22:11:06;;;;;;;;;;;;;;;;;;5112044;27;19919;-55
2022/10/08 22:13:31;;;;;;;;;;;;;;;;;;5105139;27;19919;-55
2022/10/08 22:15:57;;;;;;;;;;;;;;;;;;5102149;27;19951;-55
2022/10/08 22:18:22;;;;;;;;;;;;;;;;;;5105563;27;19919;-56
2022/10/08 22:20:47;;;;;;;;;;;;;;;;;;5107034;27;19919;-56
2022/10/08 22:23:12;;;;;;;;;;;;;;;;;;5101937;27;19921;-56
2022/10/08 22:25:37;;;;;;;;;;;;;;;;;;5103980;27;19959;-55
2022/10/08 22:28:02;;;;;;;;;;;;;;;;;;5104830;27;19945;-56
2022/10/08 22:30:27;;;;;;;;;;;;;;;;;;5104943;27;19927;-54
2022/10/08 22:32:52;;;;;;;;;;;;;;;;;;5103797;27;20006;-56
2022/10/08 22:35:17;;;;;;;;;;;;;;;;;;5105116;27;20108;-56
2022/10/08 22:37:42;;;;;;;;;;;;;;;;;;5103441;27;19981;-56
2022/10/08 22:40:08;;;;;;;;;;;;;;;;;;5103857;27;20382;-56
2022/10/08 22:42:33;;;;;;;;;;;;;;;;;;5105022;27;20046;-56
2022/10/08 22:44:58;;;;;;;;;;;;;;;;;;5103604;27;19933;-56
2022/10/08 22:47:23;;;;;;;;;;;;;;;;;;5128603;27;20014;-56
2022/10/08 22:49:48;;;;;;;;;;;;;;;;;;5124415;27;19922;-54
2022/10/08 22:52:13;;;;;;;;;;;;;;;;;;5132913;27;19914;-55
2022/10/08 22:54:38;;;;;;;;;;;;;;;;;;5113718;27;20018;-54
2022/10/08 22:57:03;;;;;;;;;;;;;;;;;;5116596;27;19916;-54
2022/10/08 22:59:29;;;;;;;;;;;;;;;;;;5117461;27;19943;-55
2022/10/08 23:01:54;;;;;;;;;;;;;;;;;;5115586;27;19918;-56
2022/10/08 23:04:19;;;;;;;;;;;;;;;;;;5119298;27;19954;-55
2022/10/08 23:06:44;;;;;;;;;;;;;;;;;;5112656;27;20374;-56
2022/10/08 23:09:09;;;;;;;;;;;;;;;;;;5117882;27;19916;-55
2022/10/08 23:11:34;;;;;;;;;;;;;;;;;;5130329;27;19915;-56
2022/10/08 23:13:59;;;;;;;;;;;;;;;;;;5130639;27;19969;-55
2022/10/08 23:16:25;;;;;;;;;;;;;;;;;;5110664;27;20481;-55
2022/10/08 23:18:50;;;;;;;;;;;;;;;;;;5118326;27;19912;-56
2022/10/08 23:21:15;;;;;;;;;;;;;;;;;;5094950;28;19931;-56
2022/10/08 23:23:40;;;;;;;;;;;;;;;;;;5113693;27;19991;-55
2022/10/08 23:26:05;;;;;;;;;;;;;;;;;;5107267;27;19911;-55
2022/10/08 23:28:30;;;;;;;;;;;;;;;;;;5126187;27;19911;-55
2022/10/08 23:30:55;;;;;;;;;;;;;;;;;;5120224;27;19920;-56
2022/10/08 23:33:20;;;;;;;;;;;;;;;;;;5128542;27;19911;-56
2022/10/08 23:35:45;;;;;;;;;;;;;;;;;;5113388;27;19950;-54
2022/10/08 23:38:11;;;;;;;;;;;;;;;;;;5115203;27;19958;-55
2022/10/08 23:40:36;;;;;;;;;;;;;;;;;;5122711;27;19927;-55
2022/10/08 23:43:01;;;;;;;;;;;;;;;;;;5115896;27;20010;-55
2022/10/08 23:45:26;;;;;;;;;;;;;;;;;;5123331;27;20411;-55
2022/10/08 23:47:51;;;;;;;;;;;;;;;;;;5111870;27;19919;-55
2022/10/08 23:50:17;;;;;;;;;;;;;;;;;;5128534;27;19919;-54
2022/10/08 23:52:42;;;;;;;;;;;;;;;;;;5117037;27;21780;-54
2022/10/08 23:55:07;;;;;;;;;;;;;;;;;;5126546;27;19911;-54
2022/10/08 23:57:32;;;;;;;;;;;;;;;;;;5118786;27;19915;-55
2022/10/08 23:59:57;;;;;;;;;;;;;;;;;;5123557;27;19998;-56
